Lockwood, Nevada
Current Conditions -  °F | °C
As of 2:55 AM on Thursday 23 Oct 2014 (Local Time) from KRNO Reporting Station
Few Clouds Few Clouds  
Wind Chill: 50°   Ceiling: Unl
Heat Index: 50°   Visibility: 10mi
Dew Point: 29°   Wind: 3mph
Humidity: 44%   Direction: 310°NW
Pressure: 30.09"   Gusts: NA
Location:  39.5403°N, 119.672°W
Report Text: KRNO 230955Z 31003KT 10SM FEW180 10/M02 A3009 RMK AO2 SLP155 T01001017
Loading
Personal Weather Stations






























Interactive Weather Map
Tropical Storm Tracking
New forecast layout! Learn more

10-Day Weather Forecast

Advertisements
Track Severe Weather on mobile